sensor_id;sensor_type;location;lat;lon;timestamp;pressure;altitude;pressure_sealevel;temperature;humidity
62548;BME280;48602;45.192;5.722;2023-05-24T00:02:03;99123.00;;;17.72;89.26
62548;BME280;48602;45.192;5.722;2023-05-24T00:04:31;99123.22;;;17.69;88.16
62548;BME280;48602;45.192;5.722;2023-05-24T00:06:56;99134.09;;;17.66;88.98
62548;BME280;48602;45.192;5.722;2023-05-24T00:09:22;99133.34;;;17.64;88.48
62548;BME280;48602;45.192;5.722;2023-05-24T00:11:47;99131.53;;;17.64;87.93
62548;BME280;48602;45.192;5.722;2023-05-24T00:14:13;99131.41;;;17.66;87.75
62548;BME280;48602;45.192;5.722;2023-05-24T00:16:38;99131.31;;;17.67;87.50
62548;BME280;48602;45.192;5.722;2023-05-24T00:19:04;99139.31;;;17.67;87.44
62548;BME280;48602;45.192;5.722;2023-05-24T00:21:29;99133.03;;;17.68;88.51
62548;BME280;48602;45.192;5.722;2023-05-24T00:23:56;99135.59;;;17.70;87.43
62548;BME280;48602;45.192;5.722;2023-05-24T00:26:21;99127.59;;;17.70;86.99
62548;BME280;48602;45.192;5.722;2023-05-24T00:28:47;99131.88;;;17.72;87.26
62548;BME280;48602;45.192;5.722;2023-05-24T00:31:12;99134.53;;;17.72;86.79
62548;BME280;48602;45.192;5.722;2023-05-24T00:33:38;99125.69;;;17.72;86.26
62548;BME280;48602;45.192;5.722;2023-05-24T00:36:03;99129.41;;;17.69;86.81
62548;BME280;48602;45.192;5.722;2023-05-24T00:38:29;99125.03;;;17.68;87.35
62548;BME280;48602;45.192;5.722;2023-05-24T00:40:54;99126.09;;;17.66;87.37
62548;BME280;48602;45.192;5.722;2023-05-24T00:43:25;99122.00;;;17.60;87.45
62548;BME280;48602;45.192;5.722;2023-05-24T00:48:30;99126.69;;;17.57;87.50
62548;BME280;48602;45.192;5.722;2023-05-24T00:50:55;99121.56;;;17.54;87.24
62548;BME280;48602;45.192;5.722;2023-05-24T00:53:21;99115.38;;;17.53;87.16
62548;BME280;48602;45.192;5.722;2023-05-24T00:55:47;99112.72;;;17.53;87.14
62548;BME280;48602;45.192;5.722;2023-05-24T00:58:12;99114.44;;;17.54;87.74
62548;BME280;48602;45.192;5.722;2023-05-24T01:00:39;99111.78;;;17.54;87.02
62548;BME280;48602;45.192;5.722;2023-05-24T01:03:05;99105.78;;;17.51;86.83
62548;BME280;48602;45.192;5.722;2023-05-24T01:05:31;99113.97;;;17.48;87.25
62548;BME280;48602;45.192;5.722;2023-05-24T01:08:05;99116.75;;;17.46;87.38
62548;BME280;48602;45.192;5.722;2023-05-24T01:10:41;99118.47;;;17.47;87.41
62548;BME280;48602;45.192;5.722;2023-05-24T01:16:16;99119.41;;;17.46;87.15
62548;BME280;48602;45.192;5.722;2023-05-24T01:18:50;99114.28;;;17.43;87.22
62548;BME280;48602;45.192;5.722;2023-05-24T01:24:43;99124.44;;;17.38;86.64
62548;BME280;48602;45.192;5.722;2023-05-24T01:27:18;99123.78;;;17.34;86.90
62548;BME280;48602;45.192;5.722;2023-05-24T01:29:47;99128.34;;;17.32;86.63
62548;BME280;48602;45.192;5.722;2023-05-24T01:32:18;99125.03;;;17.29;86.73
62548;BME280;48602;45.192;5.722;2023-05-24T01:34:43;99124.41;;;17.25;86.96
62548;BME280;48602;45.192;5.722;2023-05-24T01:37:08;99122.59;;;17.26;86.73
62548;BME280;48602;45.192;5.722;2023-05-24T01:39:34;99122.72;;;17.24;87.17
62548;BME280;48602;45.192;5.722;2023-05-24T01:45:34;99131.41;;;17.26;87.52
62548;BME280;48602;45.192;5.722;2023-05-24T01:48:23;99131.66;;;17.23;87.70
62548;BME280;48602;45.192;5.722;2023-05-24T01:50:55;99131.66;;;17.23;87.40
62548;BME280;48602;45.192;5.722;2023-05-24T01:53:23;99122.81;;;17.23;86.45
62548;BME280;48602;45.192;5.722;2023-05-24T01:55:55;99117.69;;;17.20;86.60
62548;BME280;48602;45.192;5.722;2023-05-24T01:58:22;99123.00;;;17.20;86.59
62548;BME280;48602;45.192;5.722;2023-05-24T02:00:50;99121.31;;;17.19;86.40
62548;BME280;48602;45.192;5.722;2023-05-24T02:03:16;99120.34;;;17.20;86.48
62548;BME280;48602;45.192;5.722;2023-05-24T02:05:42;99118.44;;;17.22;86.56
62548;BME280;48602;45.192;5.722;2023-05-24T02:08:08;99114.72;;;17.24;86.14
62548;BME280;48602;45.192;5.722;2023-05-24T02:10:34;99118.84;;;17.28;86.42
62548;BME280;48602;45.192;5.722;2023-05-24T02:13:02;99115.78;;;17.34;86.45
62548;BME280;48602;45.192;5.722;2023-05-24T02:15:28;99101.31;;;17.38;85.18
62548;BME280;48602;45.192;5.722;2023-05-24T02:17:54;99100.16;;;17.42;85.36
62548;BME280;48602;45.192;5.722;2023-05-24T02:20:20;99095.53;;;17.44;85.63
62548;BME280;48602;45.192;5.722;2023-05-24T02:22:47;99099.81;;;17.47;86.33
62548;BME280;48602;45.192;5.722;2023-05-24T02:25:13;99095.22;;;17.49;85.99
62548;BME280;48602;45.192;5.722;2023-05-24T02:27:38;99090.00;;;17.48;85.71
62548;BME280;48602;45.192;5.722;2023-05-24T02:30:05;99088.63;;;17.42;85.49
62548;BME280;48602;45.192;5.722;2023-05-24T02:32:30;99086.28;;;17.37;85.47
62548;BME280;48602;45.192;5.722;2023-05-24T02:34:57;99081.34;;;17.31;86.12
62548;BME280;48602;45.192;5.722;2023-05-24T02:37:23;99086.13;;;17.26;86.13
62548;BME280;48602;45.192;5.722;2023-05-24T02:39:49;99088.28;;;17.21;85.69
62548;BME280;48602;45.192;5.722;2023-05-24T02:42:15;99090.19;;;17.19;85.77
62548;BME280;48602;45.192;5.722;2023-05-24T02:44:40;99077.81;;;17.18;86.64
62548;BME280;48602;45.192;5.722;2023-05-24T02:47:07;99080.28;;;17.21;86.49
62548;BME280;48602;45.192;5.722;2023-05-24T02:49:32;99068.66;;;17.22;86.56
62548;BME280;48602;45.192;5.722;2023-05-24T02:51:58;99071.00;;;17.27;86.36
62548;BME280;48602;45.192;5.722;2023-05-24T02:54:24;99067.38;;;17.28;85.97
62548;BME280;48602;45.192;5.722;2023-05-24T02:56:49;99069.94;;;17.29;86.10
62548;BME280;48602;45.192;5.722;2023-05-24T02:59:15;99064.59;;;17.29;86.00
62548;BME280;48602;45.192;5.722;2023-05-24T03:01:41;99067.28;;;17.29;85.98
62548;BME280;48602;45.192;5.722;2023-05-24T03:04:07;99070.78;;;17.30;85.95
62548;BME280;48602;45.192;5.722;2023-05-24T03:06:32;99060.22;;;17.28;86.18
62548;BME280;48602;45.192;5.722;2023-05-24T03:08:57;99066.41;;;17.29;86.09
62548;BME280;48602;45.192;5.722;2023-05-24T03:11:23;99062.91;;;17.28;85.75
62548;BME280;48602;45.192;5.722;2023-05-24T03:13:48;99065.66;;;17.27;86.06
62548;BME280;48602;45.192;5.722;2023-05-24T03:16:14;99056.94;;;17.25;86.29
62548;BME280;48602;45.192;5.722;2023-05-24T03:18:41;99056.28;;;17.21;86.48
62548;BME280;48602;45.192;5.722;2023-05-24T03:21:06;99062.47;;;17.22;86.33
62548;BME280;48602;45.192;5.722;2023-05-24T03:23:32;99059.81;;;17.22;86.84
62548;BME280;48602;45.192;5.722;2023-05-24T03:25:57;99058.75;;;17.24;86.47
62548;BME280;48602;45.192;5.722;2023-05-24T03:28:22;99049.81;;;17.25;86.35
62548;BME280;48602;45.192;5.722;2023-05-24T03:30:48;99054.16;;;17.26;86.25
62548;BME280;48602;45.192;5.722;2023-05-24T03:33:14;99060.66;;;17.22;86.57
62548;BME280;48602;45.192;5.722;2023-05-24T03:35:39;99059.16;;;17.18;86.46
62548;BME280;48602;45.192;5.722;2023-05-24T03:38:05;99059.28;;;17.17;86.19
62548;BME280;48602;45.192;5.722;2023-05-24T03:40:30;99065.56;;;17.16;85.94
62548;BME280;48602;45.192;5.722;2023-05-24T03:42:58;99068.22;;;17.16;86.54
62548;BME280;48602;45.192;5.722;2023-05-24T03:45:24;99070.13;;;17.14;86.63
62548;BME280;48602;45.192;5.722;2023-05-24T03:47:50;99065.75;;;17.13;86.88
62548;BME280;48602;45.192;5.722;2023-05-24T03:50:15;99080.03;;;17.12;86.66
62548;BME280;48602;45.192;5.722;2023-05-24T03:52:41;99075.66;;;17.10;86.83
62548;BME280;48602;45.192;5.722;2023-05-24T03:55:06;99075.78;;;17.09;86.95
62548;BME280;48602;45.192;5.722;2023-05-24T03:57:32;99066.09;;;17.08;86.91
62548;BME280;48602;45.192;5.722;2023-05-24T03:59:57;99075.03;;;17.07;87.01
62548;BME280;48602;45.192;5.722;2023-05-24T04:02:24;99067.25;;;17.04;87.37
62548;BME280;48602;45.192;5.722;2023-05-24T04:04:49;99078.09;;;17.01;86.90
62548;BME280;48602;45.192;5.722;2023-05-24T04:07:15;99082.78;;;16.97;87.46
62548;BME280;48602;45.192;5.722;2023-05-24T04:09:41;99082.97;;;16.94;86.98
62548;BME280;48602;45.192;5.722;2023-05-24T04:12:07;99081.38;;;16.92;87.50
62548;BME280;48602;45.192;5.722;2023-05-24T04:14:32;99082.34;;;16.91;88.16
62548;BME280;48602;45.192;5.722;2023-05-24T04:16:57;99082.44;;;16.89;87.63
62548;BME280;48602;45.192;5.722;2023-05-24T04:19:23;99083.50;;;16.87;88.29
62548;BME280;48602;45.192;5.722;2023-05-24T04:21:48;99086.34;;;16.84;88.45
62548;BME280;48602;45.192;5.722;2023-05-24T04:24:14;99089.03;;;16.84;88.53
62548;BME280;48602;45.192;5.722;2023-05-24T04:26:40;99094.34;;;16.84;88.74
62548;BME280;48602;45.192;5.722;2023-05-24T04:29:05;99092.53;;;16.84;89.13
62548;BME280;48602;45.192;5.722;2023-05-24T04:31:31;99097.09;;;16.82;88.78
62548;BME280;48602;45.192;5.722;2023-05-24T04:33:58;99096.16;;;16.83;88.58
62548;BME280;48602;45.192;5.722;2023-05-24T04:36:24;99101.56;;;16.82;89.25
62548;BME280;48602;45.192;5.722;2023-05-24T04:38:50;99099.00;;;16.80;89.42
62548;BME280;48602;45.192;5.722;2023-05-24T04:41:18;99097.31;;;16.79;89.25
62548;BME280;48602;45.192;5.722;2023-05-24T04:43:44;99099.09;;;16.79;89.81
62548;BME280;48602;45.192;5.722;2023-05-24T04:46:09;99106.03;;;16.81;89.52
62548;BME280;48602;45.192;5.722;2023-05-24T04:48:35;99102.44;;;16.82;89.71
62548;BME280;48602;45.192;5.722;2023-05-24T04:51:00;99105.00;;;16.84;89.19
62548;BME280;48602;45.192;5.722;2023-05-24T04:53:26;99104.03;;;16.85;89.05
62548;BME280;48602;45.192;5.722;2023-05-24T04:55:51;99102.44;;;16.82;90.07
62548;BME280;48602;45.192;5.722;2023-05-24T04:58:17;99099.00;;;16.80;89.80
62548;BME280;48602;45.192;5.722;2023-05-24T05:00:43;99102.63;;;16.79;90.19
62548;BME280;48602;45.192;5.722;2023-05-24T05:03:09;99096.44;;;16.79;90.40
62548;BME280;48602;45.192;5.722;2023-05-24T05:05:35;99107.75;;;16.82;90.66
62548;BME280;48602;45.192;5.722;2023-05-24T05:08:01;99108.59;;;16.83;89.67
62548;BME280;48602;45.192;5.722;2023-05-24T05:10:26;99111.38;;;16.81;90.35
62548;BME280;48602;45.192;5.722;2023-05-24T05:12:52;99102.63;;;16.79;90.65
62548;BME280;48602;45.192;5.722;2023-05-24T05:15:20;99107.84;;;16.81;90.40
62548;BME280;48602;45.192;5.722;2023-05-24T05:17:46;99109.66;;;16.80;89.75
62548;BME280;48602;45.192;5.722;2023-05-24T05:20:11;99103.38;;;16.81;90.10
62548;BME280;48602;45.192;5.722;2023-05-24T05:22:37;99113.06;;;16.82;89.89
62548;BME280;48602;45.192;5.722;2023-05-24T05:25:02;99108.41;;;16.86;90.20
62548;BME280;48602;45.192;5.722;2023-05-24T05:27:28;99109.06;;;16.89;89.93
62548;BME280;48602;45.192;5.722;2023-05-24T05:29:54;99100.88;;;16.92;89.32
62548;BME280;48602;45.192;5.722;2023-05-24T05:32:19;99099.69;;;16.96;89.12
62548;BME280;48602;45.192;5.722;2023-05-24T05:34:45;99103.03;;;17.00;88.94
62548;BME280;48602;45.192;5.722;2023-05-24T05:37:10;99109.75;;;17.05;88.38
62548;BME280;48602;45.192;5.722;2023-05-24T05:39:35;99108.38;;;17.13;87.85
62548;BME280;48602;45.192;5.722;2023-05-24T05:42:01;99106.16;;;17.19;88.05
62548;BME280;48602;45.192;5.722;2023-05-24T05:44:27;99098.38;;;17.29;88.29
62548;BME280;48602;45.192;5.722;2023-05-24T05:46:52;99102.16;;;17.39;87.31
62548;BME280;48602;45.192;5.722;2023-05-24T05:49:18;99103.22;;;17.49;87.89
62548;BME280;48602;45.192;5.722;2023-05-24T05:51:44;99102.25;;;17.63;87.06
62548;BME280;48602;45.192;5.722;2023-05-24T05:54:10;99099.88;;;17.72;87.05
62548;BME280;48602;45.192;5.722;2023-05-24T05:56:39;99105.41;;;17.82;86.45
62548;BME280;48602;45.192;5.722;2023-05-24T05:59:13;99096.13;;;17.88;86.87
62548;BME280;48602;45.192;5.722;2023-05-24T06:01:39;99108.59;;;17.87;84.07
62548;BME280;48602;45.192;5.722;2023-05-24T06:04:05;99104.66;;;17.80;83.56
62548;BME280;48602;45.192;5.722;2023-05-24T06:06:31;99101.88;;;17.69;83.16
62548;BME280;48602;45.192;5.722;2023-05-24T06:08:57;99104.00;;;17.64;82.66
62548;BME280;48602;45.192;5.722;2023-05-24T06:11:22;99111.66;;;17.56;82.51
62548;BME280;48602;45.192;5.722;2023-05-24T06:13:48;99109.19;;;17.53;82.79
62548;BME280;48602;45.192;5.722;2023-05-24T06:16:13;99103.97;;;17.51;83.02
62548;BME280;48602;45.192;5.722;2023-05-24T06:18:38;99103.88;;;17.53;82.43
62548;BME280;48602;45.192;5.722;2023-05-24T06:21:05;99106.63;;;17.51;82.33
62548;BME280;48602;45.192;5.722;2023-05-24T06:23:30;99108.84;;;17.44;82.20
62548;BME280;48602;45.192;5.722;2023-05-24T06:25:57;99107.50;;;17.39;82.72
62548;BME280;48602;45.192;5.722;2023-05-24T06:28:22;99105.78;;;17.38;82.46
62548;BME280;48602;45.192;5.722;2023-05-24T06:30:48;99105.88;;;17.36;82.46
62548;BME280;48602;45.192;5.722;2023-05-24T06:33:13;99106.94;;;17.34;82.90
62548;BME280;48602;45.192;5.722;2023-05-24T06:35:39;99098.94;;;17.34;82.31
62548;BME280;48602;45.192;5.722;2023-05-24T06:38:04;99106.94;;;17.34;82.90
62548;BME280;48602;45.192;5.722;2023-05-24T06:40:30;99106.94;;;17.34;82.46
62548;BME280;48602;45.192;5.722;2023-05-24T06:42:55;99115.88;;;17.33;82.21
62548;BME280;48602;45.192;5.722;2023-05-24T06:45:22;99116.84;;;17.32;82.06
62548;BME280;48602;45.192;5.722;2023-05-24T06:47:48;99117.59;;;17.34;82.18
62548;BME280;48602;45.192;5.722;2023-05-24T06:50:13;99113.03;;;17.36;82.39
62548;BME280;48602;45.192;5.722;2023-05-24T06:52:39;99125.38;;;17.37;82.43
62548;BME280;48602;45.192;5.722;2023-05-24T06:55:04;99116.22;;;17.41;82.06
62548;BME280;48602;45.192;5.722;2023-05-24T06:57:30;99117.94;;;17.42;81.37
62548;BME280;48602;45.192;5.722;2023-05-24T06:59:55;99119.75;;;17.41;81.59
62548;BME280;48602;45.192;5.722;2023-05-24T07:02:21;99112.72;;;17.40;81.66
62548;BME280;48602;45.192;5.722;2023-05-24T07:04:50;99115.38;;;17.40;81.99
62548;BME280;48602;45.192;5.722;2023-05-24T07:07:16;99114.28;;;17.43;81.85
62548;BME280;48602;45.192;5.722;2023-05-24T07:09:42;99120.47;;;17.43;81.46
62548;BME280;48602;45.192;5.722;2023-05-24T07:12:08;99130.28;;;17.43;81.56
62548;BME280;48602;45.192;5.722;2023-05-24T07:14:34;99136.91;;;17.37;81.06
62548;BME280;48602;45.192;5.722;2023-05-24T07:16:59;99133.88;;;17.29;80.34
62548;BME280;48602;45.192;5.722;2023-05-24T07:19:25;99135.38;;;17.21;81.25
62548;BME280;48602;45.192;5.722;2023-05-24T07:21:54;99136.53;;;17.17;81.40
62548;BME280;48602;45.192;5.722;2023-05-24T07:24:20;99137.59;;;17.14;81.58
62548;BME280;48602;45.192;5.722;2023-05-24T07:26:47;99134.25;;;17.10;82.05
62548;BME280;48602;45.192;5.722;2023-05-24T07:29:12;99134.41;;;17.09;82.24
62548;BME280;48602;45.192;5.722;2023-05-24T07:31:37;99135.44;;;17.06;81.96
62548;BME280;48602;45.192;5.722;2023-05-24T07:34:03;99143.44;;;17.06;82.13
62548;BME280;48602;45.192;5.722;2023-05-24T07:36:28;99142.69;;;17.04;81.84
62548;BME280;48602;45.192;5.722;2023-05-24T07:38:56;99152.66;;;17.01;82.11
62548;BME280;48602;45.192;5.722;2023-05-24T07:41:25;99154.38;;;17.02;82.31
62548;BME280;48602;45.192;5.722;2023-05-24T07:43:50;99155.34;;;17.01;81.68
62548;BME280;48602;45.192;5.722;2023-05-24T07:46:16;99151.81;;;17.00;81.69
62548;BME280;48602;45.192;5.722;2023-05-24T07:48:41;99155.34;;;17.01;81.90
62548;BME280;48602;45.192;5.722;2023-05-24T07:51:07;99172.06;;;17.03;81.82
62548;BME280;48602;45.192;5.722;2023-05-24T07:53:32;99160.56;;;17.02;82.07
62548;BME280;48602;45.192;5.722;2023-05-24T07:55:58;99155.13;;;17.04;81.52
62548;BME280;48602;45.192;5.722;2023-05-24T07:58:24;99176.44;;;17.04;81.75
62548;BME280;48602;45.192;5.722;2023-05-24T08:00:50;99155.91;;;17.06;81.77
62548;BME280;48602;45.192;5.722;2023-05-24T08:03:16;99159.19;;;17.09;81.49
62548;BME280;48602;45.192;5.722;2023-05-24T08:05:42;99150.03;;;17.14;81.37
62548;BME280;48602;45.192;5.722;2023-05-24T08:08:07;99156.88;;;17.18;81.41
62548;BME280;48602;45.192;5.722;2023-05-24T08:10:33;99169.06;;;17.22;81.15
62548;BME280;48602;45.192;5.722;2023-05-24T08:12:59;99148.50;;;17.24;80.46
62548;BME280;48602;45.192;5.722;2023-05-24T08:15:24;99162.56;;;17.26;80.98
62548;BME280;48602;45.192;5.722;2023-05-24T08:17:50;99160.72;;;17.26;80.59
62548;BME280;48602;45.192;5.722;2023-05-24T08:20:15;99161.50;;;17.28;80.72
62548;BME280;48602;45.192;5.722;2023-05-24T08:22:42;99169.19;;;17.33;80.59
62548;BME280;48602;45.192;5.722;2023-05-24T08:25:08;99148.53;;;17.36;80.26
62548;BME280;48602;45.192;5.722;2023-05-24T08:27:33;99156.22;;;17.41;80.17
62548;BME280;48602;45.192;5.722;2023-05-24T08:29:59;99166.53;;;17.45;79.99
62548;BME280;48602;45.192;5.722;2023-05-24T08:32:24;99159.19;;;17.49;79.85
62548;BME280;48602;45.192;5.722;2023-05-24T08:34:50;99159.84;;;17.53;79.78
62548;BME280;48602;45.192;5.722;2023-05-24T08:37:16;99152.31;;;17.59;79.78
62548;BME280;48602;45.192;5.722;2023-05-24T08:39:45;99161.50;;;17.68;79.88
62548;BME280;48602;45.192;5.722;2023-05-24T08:42:10;99153.84;;;17.76;78.92
62548;BME280;48602;45.192;5.722;2023-05-24T08:45:03;99162.06;;;17.86;79.08
62548;BME280;48602;45.192;5.722;2023-05-24T08:47:33;99154.03;;;17.98;79.10
62548;BME280;48602;45.192;5.722;2023-05-24T08:50:00;99154.88;;;18.11;78.79
62548;BME280;48602;45.192;5.722;2023-05-24T08:52:26;99151.59;;;18.21;77.29
62548;BME280;48602;45.192;5.722;2023-05-24T08:54:53;99156.38;;;18.28;77.10
62548;BME280;48602;45.192;5.722;2023-05-24T08:57:19;99157.84;;;18.32;76.20
62548;BME280;48602;45.192;5.722;2023-05-24T08:59:45;99155.72;;;18.37;75.88
62548;BME280;48602;45.192;5.722;2023-05-24T09:02:14;99163.53;;;18.40;76.36
62548;BME280;48602;45.192;5.722;2023-05-24T09:04:40;99171.41;;;18.42;75.25
62548;BME280;48602;45.192;5.722;2023-05-24T09:07:09;99168.50;;;18.45;75.95
62548;BME280;48602;45.192;5.722;2023-05-24T09:09:42;99165.50;;;18.49;75.24
62548;BME280;48602;45.192;5.722;2023-05-24T09:12:15;99167.88;;;18.54;75.35
62548;BME280;48602;45.192;5.722;2023-05-24T09:14:45;99178.97;;;18.61;75.06
62548;BME280;48602;45.192;5.722;2023-05-24T09:17:12;99175.44;;;18.60;75.01
62548;BME280;48602;45.192;5.722;2023-05-24T09:19:44;99173.09;;;18.56;74.83
62548;BME280;48602;45.192;5.722;2023-05-24T09:22:14;99165.41;;;18.51;75.47
62548;BME280;48602;45.192;5.722;2023-05-24T09:24:51;99171.81;;;18.48;75.32
62548;BME280;48602;45.192;5.722;2023-05-24T09:27:17;99172.78;;;18.47;75.42
62548;BME280;48602;45.192;5.722;2023-05-24T09:29:45;99167.22;;;18.51;75.76
62548;BME280;48602;45.192;5.722;2023-05-24T09:32:13;99173.00;;;18.57;74.85
62548;BME280;48602;45.192;5.722;2023-05-24T09:34:40;99161.44;;;18.57;74.65
62548;BME280;48602;45.192;5.722;2023-05-24T09:37:18;99168.50;;;18.58;74.92
62548;BME280;48602;45.192;5.722;2023-05-24T09:39:44;99162.09;;;18.60;74.17
62548;BME280;48602;45.192;5.722;2023-05-24T09:42:15;99160.72;;;18.55;74.39
62548;BME280;48602;45.192;5.722;2023-05-24T09:44:42;99166.16;;;18.53;74.14
62548;BME280;48602;45.192;5.722;2023-05-24T09:47:08;99171.72;;;18.50;74.71
62548;BME280;48602;45.192;5.722;2023-05-24T09:49:37;99177.16;;;18.48;74.18
62548;BME280;48602;45.192;5.722;2023-05-24T09:52:03;99171.81;;;18.48;73.64
62548;BME280;48602;45.192;5.722;2023-05-24T09:54:30;99163.91;;;18.47;73.98
62548;BME280;48602;45.192;5.722;2023-05-24T09:56:59;99189.66;;;18.48;73.01
62548;BME280;48602;45.192;5.722;2023-05-24T09:59:26;99161.47;;;18.44;73.63
62548;BME280;48602;45.192;5.722;2023-05-24T10:01:56;99170.22;;;18.46;73.88
62548;BME280;48602;45.192;5.722;2023-05-24T10:04:33;99169.34;;;18.45;73.42
62548;BME280;48602;45.192;5.722;2023-05-24T10:06:59;99181.84;;;18.45;73.88
62548;BME280;48602;45.192;5.722;2023-05-24T10:09:28;99159.44;;;18.47;73.22
62548;BME280;48602;45.192;5.722;2023-05-24T10:12:02;99172.56;;;18.51;73.39
62548;BME280;48602;45.192;5.722;2023-05-24T10:14:32;99176.84;;;18.53;74.05
62548;BME280;48602;45.192;5.722;2023-05-24T10:17:00;99170.25;;;18.59;72.68
62548;BME280;48602;45.192;5.722;2023-05-24T10:19:26;99179.72;;;18.63;73.12
62548;BME280;48602;45.192;5.722;2023-05-24T10:21:52;99187.50;;;18.66;72.88
62548;BME280;48602;45.192;5.722;2023-05-24T10:24:23;99179.59;;;18.64;72.59
62548;BME280;48602;45.192;5.722;2023-05-24T10:26:50;99173.53;;;18.62;73.04
62548;BME280;48602;45.192;5.722;2023-05-24T10:29:26;99170.63;;;18.65;73.06
62548;BME280;48602;45.192;5.722;2023-05-24T10:31:52;99189.00;;;18.70;73.03
62548;BME280;48602;45.192;5.722;2023-05-24T10:34:19;99162.28;;;18.70;72.64
62548;BME280;48602;45.192;5.722;2023-05-24T10:36:45;99171.16;;;18.70;72.63
62548;BME280;48602;45.192;5.722;2023-05-24T10:39:11;99173.63;;;18.73;72.50
62548;BME280;48602;45.192;5.722;2023-05-24T10:41:40;99173.50;;;18.75;71.98
62548;BME280;48602;45.192;5.722;2023-05-24T10:44:10;99175.22;;;18.76;72.44
62548;BME280;48602;45.192;5.722;2023-05-24T10:47:09;99183.94;;;18.78;72.34
62548;BME280;48602;45.192;5.722;2023-05-24T10:49:35;99173.25;;;18.78;72.48
62548;BME280;48602;45.192;5.722;2023-05-24T10:52:06;99166.22;;;18.77;72.00
62548;BME280;48602;45.192;5.722;2023-05-24T10:54:32;99173.25;;;18.78;71.80
62548;BME280;48602;45.192;5.722;2023-05-24T10:57:00;99161.41;;;18.82;71.57
62548;BME280;48602;45.192;5.722;2023-05-24T10:59:36;99172.38;;;18.90;70.71
62548;BME280;48602;45.192;5.722;2023-05-24T11:02:04;99170.91;;;18.86;71.38
62548;BME280;48602;45.192;5.722;2023-05-24T11:04:36;99162.88;;;18.86;71.55
62548;BME280;48602;45.192;5.722;2023-05-24T11:07:03;99159.25;;;18.87;71.52
62548;BME280;48602;45.192;5.722;2023-05-24T11:09:30;99175.06;;;18.90;71.14
62548;BME280;48602;45.192;5.722;2023-05-24T11:12:01;99166.81;;;18.93;72.18
62548;BME280;48602;45.192;5.722;2023-05-24T11:14:29;99163.91;;;18.96;71.54
62548;BME280;48602;45.192;5.722;2023-05-24T11:16:56;99160.38;;;18.96;71.36
62548;BME280;48602;45.192;5.722;2023-05-24T11:19:23;99161.81;;;18.89;71.26
62548;BME280;48602;45.192;5.722;2023-05-24T11:21:51;99163.84;;;18.85;71.32
62548;BME280;48602;45.192;5.722;2023-05-24T11:24:18;99162.47;;;18.79;71.44
62548;BME280;48602;45.192;5.722;2023-05-24T11:26:45;99148.50;;;18.76;71.77
62548;BME280;48602;45.192;5.722;2023-05-24T11:29:13;99151.41;;;18.73;72.07
62548;BME280;48602;45.192;5.722;2023-05-24T11:31:46;99155.25;;;18.69;72.45
62548;BME280;48602;45.192;5.722;2023-05-24T11:34:12;99141.03;;;18.68;72.47
62548;BME280;48602;45.192;5.722;2023-05-24T11:36:37;99139.44;;;18.66;72.45
62548;BME280;48602;45.192;5.722;2023-05-24T11:39:06;99141.38;;;18.64;72.89
62548;BME280;48602;45.192;5.722;2023-05-24T11:41:35;99136.03;;;18.64;72.40
62548;BME280;48602;45.192;5.722;2023-05-24T11:44:01;99137.63;;;18.66;72.59
62548;BME280;48602;45.192;5.722;2023-05-24T11:46:26;99132.50;;;18.63;72.13
62548;BME280;48602;45.192;5.722;2023-05-24T11:48:58;99121.59;;;18.66;72.40
62548;BME280;48602;45.192;5.722;2023-05-24T11:51:34;99134.00;;;18.67;72.01
62548;BME280;48602;45.192;5.722;2023-05-24T11:54:00;99143.72;;;18.68;72.24
62548;BME280;48602;45.192;5.722;2023-05-24T11:56:28;99117.00;;;18.68;72.05
62548;BME280;48602;45.192;5.722;2023-05-24T11:59:08;99099.38;;;18.66;71.43
62548;BME280;48602;45.192;5.722;2023-05-24T12:01:35;99115.28;;;18.67;71.73
62548;BME280;48602;45.192;5.722;2023-05-24T12:04:04;99128.75;;;18.66;71.15
62548;BME280;48602;45.192;5.722;2023-05-24T12:06:38;99110.81;;;18.68;71.56
62548;BME280;48602;45.192;5.722;2023-05-24T12:09:04;99121.81;;;18.76;71.58
62548;BME280;48602;45.192;5.722;2023-05-24T12:11:33;99102.41;;;18.85;71.55
62548;BME280;48602;45.192;5.722;2023-05-24T12:13:59;99094.31;;;18.98;71.04
62548;BME280;48602;45.192;5.722;2023-05-24T12:16:25;99088.91;;;19.10;70.59
62548;BME280;48602;45.192;5.722;2023-05-24T12:18:51;99084.13;;;19.27;69.70
62548;BME280;48602;45.192;5.722;2023-05-24T12:21:17;99079.53;;;19.40;69.56
62548;BME280;48602;45.192;5.722;2023-05-24T12:23:46;99087.81;;;19.48;69.58
62548;BME280;48602;45.192;5.722;2023-05-24T12:26:12;99081.91;;;19.56;68.90
62548;BME280;48602;45.192;5.722;2023-05-24T12:28:38;99070.72;;;19.62;69.45
62548;BME280;48602;45.192;5.722;2023-05-24T12:31:04;99093.81;;;19.63;68.76
62548;BME280;48602;45.192;5.722;2023-05-24T12:33:30;99066.97;;;19.64;68.54
62548;BME280;48602;45.192;5.722;2023-05-24T12:35:57;99075.13;;;19.74;68.47
62548;BME280;48602;45.192;5.722;2023-05-24T12:38:23;99060.91;;;19.84;67.54
62548;BME280;48602;45.192;5.722;2023-05-24T12:40:50;99059.34;;;19.93;68.02
62548;BME280;48602;45.192;5.722;2023-05-24T12:43:18;99061.88;;;20.06;68.59
62548;BME280;48602;45.192;5.722;2023-05-24T12:45:43;99066.72;;;20.12;67.47
62548;BME280;48602;45.192;5.722;2023-05-24T12:48:09;99055.66;;;20.16;66.28
62548;BME280;48602;45.192;5.722;2023-05-24T12:50:34;99076.59;;;20.23;66.24
62548;BME280;48602;45.192;5.722;2023-05-24T12:53:00;99044.22;;;20.14;66.57
62548;BME280;48602;45.192;5.722;2023-05-24T12:55:26;99052.47;;;20.11;66.33
62548;BME280;48602;45.192;5.722;2023-05-24T12:57:53;99047.88;;;20.02;67.06
62548;BME280;48602;45.192;5.722;2023-05-24T13:00:21;99050.91;;;19.98;66.69
62548;BME280;48602;45.192;5.722;2023-05-24T13:02:47;99034.53;;;19.91;66.62
62548;BME280;48602;45.192;5.722;2023-05-24T13:05:13;99040.13;;;19.77;66.54
62548;BME280;48602;45.192;5.722;2023-05-24T13:07:41;99054.94;;;19.70;67.74
62548;BME280;48602;45.192;5.722;2023-05-24T13:10:07;99021.38;;;19.66;67.49
62548;BME280;48602;45.192;5.722;2023-05-24T13:12:32;99071.44;;;19.64;67.44